sensor_id;sensor_type;location;lat;lon;timestamp;pressure;altitude;pressure_sealevel;temperature
74485;BMP280;62942;52.462;10.846;2023-07-22T00:00:25;100420;;;
74485;BMP280;62942;52.462;10.846;2023-07-22T00:01:35;100410;;;
74485;BMP280;62942;52.462;10.846;2023-07-22T00:02:35;100430;;;
74485;BMP280;62942;52.462;10.846;2023-07-22T00:03:45;100430;;;
74485;BMP280;62942;52.462;10.846;2023-07-22T00:04:55;100430;;;
74485;BMP280;62942;52.462;10.846;2023-07-22T00:06:05;100430;;;
74485;BMP280;62942;52.462;10.846;2023-07-22T00:07:15;100430;;;
74485;BMP280;62942;52.462;10.846;2023-07-22T00:08:15;100430;;;
74485;BMP280;62942;52.462;10.846;2023-07-22T00:09:25;100430;;;
74485;BMP280;62942;52.462;10.846;2023-07-22T00:10:35;100430;;;
74485;BMP280;62942;52.462;10.846;2023-07-22T00:11:45;100430;;;
74485;BMP280;62942;52.462;10.846;2023-07-22T00:12:55;100430;;;
74485;BMP280;62942;52.462;10.846;2023-07-22T00:13:55;100430;;;
74485;BMP280;62942;52.462;10.846;2023-07-22T00:15:05;100430;;;
74485;BMP280;62942;52.462;10.846;2023-07-22T00:16:05;100430;;;
74485;BMP280;62942;52.462;10.846;2023-07-22T00:17:05;100430;;;
74485;BMP280;62942;52.462;10.846;2023-07-22T00:18:15;100430;;;
74485;BMP280;62942;52.462;10.846;2023-07-22T00:19:25;100430;;;
74485;BMP280;62942;52.462;10.846;2023-07-22T00:20:35;100430;;;
74485;BMP280;62942;52.462;10.846;2023-07-22T00:21:45;100430;;;
74485;BMP280;62942;52.462;10.846;2023-07-22T00:22:45;100440;;;
74485;BMP280;62942;52.462;10.846;2023-07-22T00:23:55;100430;;;
74485;BMP280;62942;52.462;10.846;2023-07-22T00:24:55;100440;;;
74485;BMP280;62942;52.462;10.846;2023-07-22T00:25:55;100440;;;
74485;BMP280;62942;52.462;10.846;2023-07-22T00:27:05;100430;;;
74485;BMP280;62942;52.462;10.846;2023-07-22T00:28:05;100430;;;
74485;BMP280;62942;52.462;10.846;2023-07-22T00:29:15;100430;;;
74485;BMP280;62942;52.462;10.846;2023-07-22T00:30:25;100440;;;
74485;BMP280;62942;52.462;10.846;2023-07-22T00:31:35;100430;;;
74485;BMP280;62942;52.462;10.846;2023-07-22T00:32:35;100440;;;
74485;BMP280;62942;52.462;10.846;2023-07-22T00:33:45;100440;;;
74485;BMP280;62942;52.462;10.846;2023-07-22T00:34:45;100440;;;
74485;BMP280;62942;52.462;10.846;2023-07-22T00:35:47;100440;;;
74485;BMP280;62942;52.462;10.846;2023-07-22T00:36:45;100440;;;
74485;BMP280;62942;52.462;10.846;2023-07-22T00:37:54;100440;;;
74485;BMP280;62942;52.462;10.846;2023-07-22T00:38:55;100440;;;
74485;BMP280;62942;52.462;10.846;2023-07-22T00:40:05;100430;;;
74485;BMP280;62942;52.462;10.846;2023-07-22T00:41:15;100450;;;
74485;BMP280;62942;52.462;10.846;2023-07-22T00:42:15;100450;;;
74485;BMP280;62942;52.462;10.846;2023-07-22T00:43:25;100440;;;
74485;BMP280;62942;52.462;10.846;2023-07-22T00:44:25;100440;;;
74485;BMP280;62942;52.462;10.846;2023-07-22T00:45:25;100440;;;
74485;BMP280;62942;52.462;10.846;2023-07-22T00:46:35;100440;;;
74485;BMP280;62942;52.462;10.846;2023-07-22T00:47:35;100440;;;
74485;BMP280;62942;52.462;10.846;2023-07-22T00:48:45;100450;;;
74485;BMP280;62942;52.462;10.846;2023-07-22T00:49:54;100440;;;
74485;BMP280;62942;52.462;10.846;2023-07-22T00:50:54;100440;;;
74485;BMP280;62942;52.462;10.846;2023-07-22T00:51:55;100440;;;
74485;BMP280;62942;52.462;10.846;2023-07-22T00:53:04;100440;;;
74485;BMP280;62942;52.462;10.846;2023-07-22T00:54:05;100440;;;
74485;BMP280;62942;52.462;10.846;2023-07-22T00:55:15;100430;;;
74485;BMP280;62942;52.462;10.846;2023-07-22T00:56:15;100430;;;
74485;BMP280;62942;52.462;10.846;2023-07-22T00:57:25;100430;;;
74485;BMP280;62942;52.462;10.846;2023-07-22T00:58:25;100440;;;
74485;BMP280;62942;52.462;10.846;2023-07-22T00:59:25;100440;;;
74485;BMP280;62942;52.462;10.846;2023-07-22T01:00:35;100440;;;
74485;BMP280;62942;52.462;10.846;2023-07-22T01:01:35;100440;;;
74485;BMP280;62942;52.462;10.846;2023-07-22T01:02:44;100440;;;
74485;BMP280;62942;52.462;10.846;2023-07-22T01:03:44;100440;;;
74485;BMP280;62942;52.462;10.846;2023-07-22T01:04:54;100440;;;
74485;BMP280;62942;52.462;10.846;2023-07-22T01:05:55;100440;;;
74485;BMP280;62942;52.462;10.846;2023-07-22T01:07:05;100440;;;
74485;BMP280;62942;52.462;10.846;2023-07-22T01:08:14;100440;;;
74485;BMP280;62942;52.462;10.846;2023-07-22T01:09:15;100440;;;
74485;BMP280;62942;52.462;10.846;2023-07-22T01:10:25;100440;;;
74485;BMP280;62942;52.462;10.846;2023-07-22T01:11:25;100440;;;
74485;BMP280;62942;52.462;10.846;2023-07-22T01:12:34;100430;;;
74485;BMP280;62942;52.462;10.846;2023-07-22T01:13:35;100430;;;
74485;BMP280;62942;52.462;10.846;2023-07-22T01:14:44;100440;;;
74485;BMP280;62942;52.462;10.846;2023-07-22T01:15:45;100430;;;
74485;BMP280;62942;52.462;10.846;2023-07-22T01:16:54;100430;;;
74485;BMP280;62942;52.462;10.846;2023-07-22T01:18:04;100440;;;
74485;BMP280;62942;52.462;10.846;2023-07-22T01:19:14;100440;;;
74485;BMP280;62942;52.462;10.846;2023-07-22T01:20:14;100440;;;
74485;BMP280;62942;52.462;10.846;2023-07-22T01:21:25;100440;;;
74485;BMP280;62942;52.462;10.846;2023-07-22T01:22:24;100440;;;
74485;BMP280;62942;52.462;10.846;2023-07-22T01:23:35;100440;;;
74485;BMP280;62942;52.462;10.846;2023-07-22T01:24:35;100450;;;
74485;BMP280;62942;52.462;10.846;2023-07-22T01:25:44;100450;;;
74485;BMP280;62942;52.462;10.846;2023-07-22T01:26:44;100450;;;
74485;BMP280;62942;52.462;10.846;2023-07-22T01:27:54;100450;;;
74485;BMP280;62942;52.462;10.846;2023-07-22T01:29:05;100450;;;
74485;BMP280;62942;52.462;10.846;2023-07-22T01:30:05;100450;;;
74485;BMP280;62942;52.462;10.846;2023-07-22T01:31:14;100450;;;
74485;BMP280;62942;52.462;10.846;2023-07-22T01:32:14;100450;;;
74485;BMP280;62942;52.462;10.846;2023-07-22T01:33:15;100450;;;
74485;BMP280;62942;52.462;10.846;2023-07-22T01:34:25;100450;;;
74485;BMP280;62942;52.462;10.846;2023-07-22T01:35:24;100450;;;
74485;BMP280;62942;52.462;10.846;2023-07-22T01:36:34;100450;;;
74485;BMP280;62942;52.462;10.846;2023-07-22T01:37:44;100450;;;
74485;BMP280;62942;52.462;10.846;2023-07-22T01:38:44;100450;;;
74485;BMP280;62942;52.462;10.846;2023-07-22T01:39:54;100450;;;
74485;BMP280;62942;52.462;10.846;2023-07-22T01:41:04;100450;;;
74485;BMP280;62942;52.462;10.846;2023-07-22T01:42:05;100450;;;
74485;BMP280;62942;52.462;10.846;2023-07-22T01:43:14;100450;;;
74485;BMP280;62942;52.462;10.846;2023-07-22T01:44:24;100450;;;
74485;BMP280;62942;52.462;10.846;2023-07-22T01:45:24;100450;;;
74485;BMP280;62942;52.462;10.846;2023-07-22T01:46:34;100450;;;
74485;BMP280;62942;52.462;10.846;2023-07-22T01:47:35;100450;;;
74485;BMP280;62942;52.462;10.846;2023-07-22T01:48:44;100450;;;
74485;BMP280;62942;52.462;10.846;2023-07-22T01:49:54;100440;;;
74485;BMP280;62942;52.462;10.846;2023-07-22T01:51:04;100450;;;
74485;BMP280;62942;52.462;10.846;2023-07-22T01:52:14;100450;;;
74485;BMP280;62942;52.462;10.846;2023-07-22T01:53:24;100450;;;
74485;BMP280;62942;52.462;10.846;2023-07-22T01:54:24;100450;;;
74485;BMP280;62942;52.462;10.846;2023-07-22T01:55:34;100450;;;
74485;BMP280;62942;52.462;10.846;2023-07-22T01:56:44;100450;;;
74485;BMP280;62942;52.462;10.846;2023-07-22T01:57:44;100450;;;
74485;BMP280;62942;52.462;10.846;2023-07-22T01:58:54;100450;;;
74485;BMP280;62942;52.462;10.846;2023-07-22T02:00:05;100460;;;
74485;BMP280;62942;52.462;10.846;2023-07-22T02:01:14;100450;;;
74485;BMP280;62942;52.462;10.846;2023-07-22T02:02:14;100450;;;
74485;BMP280;62942;52.462;10.846;2023-07-22T02:03:24;100450;;;
74485;BMP280;62942;52.462;10.846;2023-07-22T02:04:24;100460;;;
74485;BMP280;62942;52.462;10.846;2023-07-22T02:05:34;100460;;;
74485;BMP280;62942;52.462;10.846;2023-07-22T02:06:44;100460;;;
74485;BMP280;62942;52.462;10.846;2023-07-22T02:07:44;100460;;;
74485;BMP280;62942;52.462;10.846;2023-07-22T02:08:54;100460;;;
74485;BMP280;62942;52.462;10.846;2023-07-22T02:10:05;100460;;;
74485;BMP280;62942;52.462;10.846;2023-07-22T02:11:05;100460;;;
74485;BMP280;62942;52.462;10.846;2023-07-22T02:12:14;100460;;;
74485;BMP280;62942;52.462;10.846;2023-07-22T02:13:24;100460;;;
74485;BMP280;62942;52.462;10.846;2023-07-22T02:14:24;100450;;;
74485;BMP280;62942;52.462;10.846;2023-07-22T02:15:34;100450;;;
74485;BMP280;62942;52.462;10.846;2023-07-22T02:16:34;100470;;;
74485;BMP280;62942;52.462;10.846;2023-07-22T02:17:44;100460;;;
74485;BMP280;62942;52.462;10.846;2023-07-22T02:18:44;100470;;;
74485;BMP280;62942;52.462;10.846;2023-07-22T02:19:54;100460;;;
74485;BMP280;62942;52.462;10.846;2023-07-22T02:20:55;100460;;;
74485;BMP280;62942;52.462;10.846;2023-07-22T02:22:05;100460;;;
74485;BMP280;62942;52.462;10.846;2023-07-22T02:23:14;100460;;;
74485;BMP280;62942;52.462;10.846;2023-07-22T02:24:15;100460;;;
74485;BMP280;62942;52.462;10.846;2023-07-22T02:25:24;100460;;;
74485;BMP280;62942;52.462;10.846;2023-07-22T02:26:34;100470;;;
74485;BMP280;62942;52.462;10.846;2023-07-22T02:27:34;100460;;;
74485;BMP280;62942;52.462;10.846;2023-07-22T02:28:34;100460;;;
74485;BMP280;62942;52.462;10.846;2023-07-22T02:29:44;100460;;;
74485;BMP280;62942;52.462;10.846;2023-07-22T02:30:44;100470;;;
74485;BMP280;62942;52.462;10.846;2023-07-22T02:31:54;100470;;;
74485;BMP280;62942;52.462;10.846;2023-07-22T02:32:54;100470;;;
74485;BMP280;62942;52.462;10.846;2023-07-22T02:34:04;100470;;;
74485;BMP280;62942;52.462;10.846;2023-07-22T02:35:14;100470;;;
74485;BMP280;62942;52.462;10.846;2023-07-22T02:36:24;100470;;;
74485;BMP280;62942;52.462;10.846;2023-07-22T02:37:36;100470;;;
74485;BMP280;62942;52.462;10.846;2023-07-22T02:38:44;100480;;;
74485;BMP280;62942;52.462;10.846;2023-07-22T02:39:54;100470;;;
74485;BMP280;62942;52.462;10.846;2023-07-22T02:41:04;100470;;;
74485;BMP280;62942;52.462;10.846;2023-07-22T02:42:05;100480;;;
74485;BMP280;62942;52.462;10.846;2023-07-22T02:43:04;100480;;;
74485;BMP280;62942;52.462;10.846;2023-07-22T02:44:14;100480;;;
74485;BMP280;62942;52.462;10.846;2023-07-22T02:45:14;100490;;;
74485;BMP280;62942;52.462;10.846;2023-07-22T02:46:24;100480;;;
74485;BMP280;62942;52.462;10.846;2023-07-22T02:47:34;100480;;;
74485;BMP280;62942;52.462;10.846;2023-07-22T02:48:44;100480;;;
74485;BMP280;62942;52.462;10.846;2023-07-22T02:49:54;100480;;;
74485;BMP280;62942;52.462;10.846;2023-07-22T02:51:05;100490;;;
74485;BMP280;62942;52.462;10.846;2023-07-22T02:52:04;100490;;;
74485;BMP280;62942;52.462;10.846;2023-07-22T02:53:14;100490;;;
74485;BMP280;62942;52.462;10.846;2023-07-22T02:54:24;100490;;;
74485;BMP280;62942;52.462;10.846;2023-07-22T02:55:34;100490;;;
74485;BMP280;62942;52.462;10.846;2023-07-22T02:56:34;100490;;;
74485;BMP280;62942;52.462;10.846;2023-07-22T02:57:45;100490;;;
74485;BMP280;62942;52.462;10.846;2023-07-22T02:58:54;100490;;;
74485;BMP280;62942;52.462;10.846;2023-07-22T03:00:05;100490;;;
74485;BMP280;62942;52.462;10.846;2023-07-22T03:01:14;100490;;;
74485;BMP280;62942;52.462;10.846;2023-07-22T03:02:14;100490;;;
74485;BMP280;62942;52.462;10.846;2023-07-22T03:03:24;100490;;;
74485;BMP280;62942;52.462;10.846;2023-07-22T03:04:34;100490;;;
74485;BMP280;62942;52.462;10.846;2023-07-22T03:05:44;100490;;;
74485;BMP280;62942;52.462;10.846;2023-07-22T03:06:44;100490;;;
74485;BMP280;62942;52.462;10.846;2023-07-22T03:07:54;100490;;;
74485;BMP280;62942;52.462;10.846;2023-07-22T03:09:04;100490;;;
74485;BMP280;62942;52.462;10.846;2023-07-22T03:10:14;100490;;;
74485;BMP280;62942;52.462;10.846;2023-07-22T03:11:24;100490;;;
74485;BMP280;62942;52.462;10.846;2023-07-22T03:12:35;100500;;;
74485;BMP280;62942;52.462;10.846;2023-07-22T03:13:34;100500;;;
74485;BMP280;62942;52.462;10.846;2023-07-22T03:14:44;100480;;;
74485;BMP280;62942;52.462;10.846;2023-07-22T03:15:54;100500;;;
74485;BMP280;62942;52.462;10.846;2023-07-22T03:17:04;100500;;;
74485;BMP280;62942;52.462;10.846;2023-07-22T03:18:14;100500;;;
74485;BMP280;62942;52.462;10.846;2023-07-22T03:19:24;100490;;;
74485;BMP280;62942;52.462;10.846;2023-07-22T03:20:34;100500;;;
74485;BMP280;62942;52.462;10.846;2023-07-22T03:21:34;100490;;;
74485;BMP280;62942;52.462;10.846;2023-07-22T03:22:34;100490;;;
74485;BMP280;62942;52.462;10.846;2023-07-22T03:23:44;100490;;;
74485;BMP280;62942;52.462;10.846;2023-07-22T03:24:44;100500;;;
74485;BMP280;62942;52.462;10.846;2023-07-22T03:25:44;100500;;;
74485;BMP280;62942;52.462;10.846;2023-07-22T03:26:54;100500;;;
74485;BMP280;62942;52.462;10.846;2023-07-22T03:27:54;100500;;;
74485;BMP280;62942;52.462;10.846;2023-07-22T03:29:04;100500;;;
74485;BMP280;62942;52.462;10.846;2023-07-22T03:30:15;100500;;;
74485;BMP280;62942;52.462;10.846;2023-07-22T03:31:24;100500;;;
74485;BMP280;62942;52.462;10.846;2023-07-22T03:32:34;100510;;;
74485;BMP280;62942;52.462;10.846;2023-07-22T03:33:34;100510;;;
74485;BMP280;62942;52.462;10.846;2023-07-22T03:34:34;100500;;;
74485;BMP280;62942;52.462;10.846;2023-07-22T03:35:44;100510;;;
74485;BMP280;62942;52.462;10.846;2023-07-22T03:36:54;100510;;;
74485;BMP280;62942;52.462;10.846;2023-07-22T03:38:04;100520;;;
74485;BMP280;62942;52.462;10.846;2023-07-22T03:39:04;100510;;;
74485;BMP280;62942;52.462;10.846;2023-07-22T03:40:05;100510;;;
74485;BMP280;62942;52.462;10.846;2023-07-22T03:41:14;100510;;;
74485;BMP280;62942;52.462;10.846;2023-07-22T03:42:24;100510;;;
74485;BMP280;62942;52.462;10.846;2023-07-22T03:43:34;100510;;;
74485;BMP280;62942;52.462;10.846;2023-07-22T03:44:44;100510;;;
74485;BMP280;62942;52.462;10.846;2023-07-22T03:45:54;100510;;;
74485;BMP280;62942;52.462;10.846;2023-07-22T03:47:04;100520;;;
74485;BMP280;62942;52.462;10.846;2023-07-22T03:48:14;100520;;;
74485;BMP280;62942;52.462;10.846;2023-07-22T03:49:14;100510;;;
74485;BMP280;62942;52.462;10.846;2023-07-22T03:50:24;100510;;;
74485;BMP280;62942;52.462;10.846;2023-07-22T03:51:24;100510;;;
74485;BMP280;62942;52.462;10.846;2023-07-22T03:52:34;100520;;;
74485;BMP280;62942;52.462;10.846;2023-07-22T03:53:44;100510;;;
74485;BMP280;62942;52.462;10.846;2023-07-22T03:54:54;100510;;;
74485;BMP280;62942;52.462;10.846;2023-07-22T03:56:04;100510;;;
74485;BMP280;62942;52.462;10.846;2023-07-22T03:57:04;100520;;;
74485;BMP280;62942;52.462;10.846;2023-07-22T03:58:14;100510;;;
74485;BMP280;62942;52.462;10.846;2023-07-22T03:59:24;100510;;;
74485;BMP280;62942;52.462;10.846;2023-07-22T04:00:34;100520;;;
74485;BMP280;62942;52.462;10.846;2023-07-22T04:01:34;100520;;;
74485;BMP280;62942;52.462;10.846;2023-07-22T04:02:34;100520;;;
74485;BMP280;62942;52.462;10.846;2023-07-22T04:03:44;100510;;;
74485;BMP280;62942;52.462;10.846;2023-07-22T04:04:44;100510;;;
74485;BMP280;62942;52.462;10.846;2023-07-22T04:05:54;100520;;;
74485;BMP280;62942;52.462;10.846;2023-07-22T04:07:04;100510;;;
74485;BMP280;62942;52.462;10.846;2023-07-22T04:08:14;100510;;;
74485;BMP280;62942;52.462;10.846;2023-07-22T04:09:25;100510;;;
74485;BMP280;62942;52.462;10.846;2023-07-22T04:10:34;100510;;;
74485;BMP280;62942;52.462;10.846;2023-07-22T04:11:34;100510;;;
74485;BMP280;62942;52.462;10.846;2023-07-22T04:12:44;100510;;;
74485;BMP280;62942;52.462;10.846;2023-07-22T04:13:54;100510;;;
74485;BMP280;62942;52.462;10.846;2023-07-22T04:15:05;100510;;;
74485;BMP280;62942;52.462;10.846;2023-07-22T04:16:04;100510;;;
74485;BMP280;62942;52.462;10.846;2023-07-22T04:17:14;100500;;;
74485;BMP280;62942;52.462;10.846;2023-07-22T04:18:14;100510;;;
74485;BMP280;62942;52.462;10.846;2023-07-22T04:19:24;100510;;;
74485;BMP280;62942;52.462;10.846;2023-07-22T04:20:34;100510;;;
74485;BMP280;62942;52.462;10.846;2023-07-22T04:21:44;100500;;;
74485;BMP280;62942;52.462;10.846;2023-07-22T04:22:44;100510;;;
74485;BMP280;62942;52.462;10.846;2023-07-22T04:23:44;100510;;;
74485;BMP280;62942;52.462;10.846;2023-07-22T04:24:54;100510;;;
74485;BMP280;62942;52.462;10.846;2023-07-22T04:25:54;100520;;;
74485;BMP280;62942;52.462;10.846;2023-07-22T04:27:04;100520;;;
74485;BMP280;62942;52.462;10.846;2023-07-22T04:28:14;100520;;;
74485;BMP280;62942;52.462;10.846;2023-07-22T04:29:24;100510;;;
74485;BMP280;62942;52.462;10.846;2023-07-22T04:30:24;100520;;;
74485;BMP280;62942;52.462;10.846;2023-07-22T04:31:34;100520;;;
74485;BMP280;62942;52.462;10.846;2023-07-22T04:32:44;100520;;;
74485;BMP280;62942;52.462;10.846;2023-07-22T04:33:54;100520;;;
74485;BMP280;62942;52.462;10.846;2023-07-22T04:34:54;100520;;;
74485;BMP280;62942;52.462;10.846;2023-07-22T04:35:55;100520;;;
74485;BMP280;62942;52.462;10.846;2023-07-22T04:37:04;100530;;;
74485;BMP280;62942;52.462;10.846;2023-07-22T04:38:14;100520;;;
74485;BMP280;62942;52.462;10.846;2023-07-22T04:39:24;100530;;;
74485;BMP280;62942;52.462;10.846;2023-07-22T04:40:34;100530;;;
74485;BMP280;62942;52.462;10.846;2023-07-22T04:41:34;100530;;;
74485;BMP280;62942;52.462;10.846;2023-07-22T04:42:44;100530;;;
74485;BMP280;62942;52.462;10.846;2023-07-22T04:43:54;100530;;;
74485;BMP280;62942;52.462;10.846;2023-07-22T04:45:04;100530;;;
74485;BMP280;62942;52.462;10.846;2023-07-22T04:46:14;100520;;;
74485;BMP280;62942;52.462;10.846;2023-07-22T04:47:24;100530;;;
74485;BMP280;62942;52.462;10.846;2023-07-22T04:48:34;100530;;;
74485;BMP280;62942;52.462;10.846;2023-07-22T04:49:34;100520;;;
74485;BMP280;62942;52.462;10.846;2023-07-22T04:50:34;100530;;;
74485;BMP280;62942;52.462;10.846;2023-07-22T04:51:34;100530;;;
74485;BMP280;62942;52.462;10.846;2023-07-22T04:52:45;100530;;;
74485;BMP280;62942;52.462;10.846;2023-07-22T04:53:54;100530;;;
74485;BMP280;62942;52.462;10.846;2023-07-22T04:55:04;100540;;;
74485;BMP280;62942;52.462;10.846;2023-07-22T04:56:14;100530;;;
74485;BMP280;62942;52.462;10.846;2023-07-22T04:57:24;100530;;;
74485;BMP280;62942;52.462;10.846;2023-07-22T04:58:34;100530;;;
74485;BMP280;62942;52.462;10.846;2023-07-22T04:59:34;100530;;;
74485;BMP280;62942;52.462;10.846;2023-07-22T05:00:34;100520;;;
74485;BMP280;62942;52.462;10.846;2023-07-22T05:01:44;100540;;;
74485;BMP280;62942;52.462;10.846;2023-07-22T05:02:54;100530;;;
74485;BMP280;62942;52.462;10.846;2023-07-22T05:03:54;100530;;;
74485;BMP280;62942;52.462;10.846;2023-07-22T05:05:04;100530;;;
74485;BMP280;62942;52.462;10.846;2023-07-22T05:06:14;100540;;;
74485;BMP280;62942;52.462;10.846;2023-07-22T05:07:24;100540;;;
74485;BMP280;62942;52.462;10.846;2023-07-22T05:08:24;100540;;;
74485;BMP280;62942;52.462;10.846;2023-07-22T05:09:24;100540;;;
74485;BMP280;62942;52.462;10.846;2023-07-22T05:10:34;100540;;;
74485;BMP280;62942;52.462;10.846;2023-07-22T05:11:34;100540;;;
74485;BMP280;62942;52.462;10.846;2023-07-22T05:12:44;100540;;;
74485;BMP280;62942;52.462;10.846;2023-07-22T05:13:44;100540;;;
74485;BMP280;62942;52.462;10.846;2023-07-22T05:14:44;100540;;;
74485;BMP280;62942;52.462;10.846;2023-07-22T05:15:54;100540;;;
74485;BMP280;62942;52.462;10.846;2023-07-22T05:17:04;100540;;;
74485;BMP280;62942;52.462;10.846;2023-07-22T05:18:04;100540;;;
74485;BMP280;62942;52.462;10.846;2023-07-22T05:19:14;100530;;;
74485;BMP280;62942;52.462;10.846;2023-07-22T05:20:14;100540;;;
74485;BMP280;62942;52.462;10.846;2023-07-22T05:21:14;100550;;;
74485;BMP280;62942;52.462;10.846;2023-07-22T05:22:24;100550;;;
74485;BMP280;62942;52.462;10.846;2023-07-22T05:23:34;100550;;;
74485;BMP280;62942;52.462;10.846;2023-07-22T05:24:44;100550;;;
74485;BMP280;62942;52.462;10.846;2023-07-22T05:25:49;100550;;;
74485;BMP280;62942;52.462;10.846;2023-07-22T05:26:54;100550;;;
74485;BMP280;62942;52.462;10.846;2023-07-22T05:28:04;100550;;;
74485;BMP280;62942;52.462;10.846;2023-07-22T05:29:14;100550;;;
74485;BMP280;62942;52.462;10.846;2023-07-22T05:30:24;100550;;;
74485;BMP280;62942;52.462;10.846;2023-07-22T05:31:34;100540;;;
74485;BMP280;62942;52.462;10.846;2023-07-22T05:32:44;100540;;;
74485;BMP280;62942;52.462;10.846;2023-07-22T05:33:44;100550;;;
74485;BMP280;62942;52.462;10.846;2023-07-22T05:34:44;100540;;;
74485;BMP280;62942;52.462;10.846;2023-07-22T05:35:44;100550;;;
74485;BMP280;62942;52.462;10.846;2023-07-22T05:36:54;100550;;;
74485;BMP280;62942;52.462;10.846;2023-07-22T05:37:54;100560;;;
74485;BMP280;62942;52.462;10.846;2023-07-22T05:39:04;100550;;;
74485;BMP280;62942;52.462;10.846;2023-07-22T05:40:14;100550;;;
74485;BMP280;62942;52.462;10.846;2023-07-22T05:41:14;100550;;;
74485;BMP280;62942;52.462;10.846;2023-07-22T05:42:24;100560;;;
74485;BMP280;62942;52.462;10.846;2023-07-22T05:43:24;100550;;;
74485;BMP280;62942;52.462;10.846;2023-07-22T05:44:34;100550;;;
74485;BMP280;62942;52.462;10.846;2023-07-22T05:45:44;100560;;;
74485;BMP280;62942;52.462;10.846;2023-07-22T05:46:54;100570;;;
74485;BMP280;62942;52.462;10.846;2023-07-22T05:47:54;100560;;;
74485;BMP280;62942;52.462;10.846;2023-07-22T05:49:04;100560;;;
74485;BMP280;62942;52.462;10.846;2023-07-22T05:50:04;100560;;;
74485;BMP280;62942;52.462;10.846;2023-07-22T05:51:14;100560;;;
74485;BMP280;62942;52.462;10.846;2023-07-22T05:52:24;100570;;;
74485;BMP280;62942;52.462;10.846;2023-07-22T05:53:24;100570;;;
74485;BMP280;62942;52.462;10.846;2023-07-22T05:54:24;100560;;;
74485;BMP280;62942;52.462;10.846;2023-07-22T05:55:34;100570;;;
74485;BMP280;62942;52.462;10.846;2023-07-22T05:56:34;100570;;;
74485;BMP280;62942;52.462;10.846;2023-07-22T05:57:34;100560;;;
74485;BMP280;62942;52.462;10.846;2023-07-22T05:58:34;100570;;;
74485;BMP280;62942;52.462;10.846;2023-07-22T05:59:34;100580;;;
74485;BMP280;62942;52.462;10.846;2023-07-22T06:00:44;100580;;;
74485;BMP280;62942;52.462;10.846;2023-07-22T06:01:54;100580;;;
74485;BMP280;62942;52.462;10.846;2023-07-22T06:02:54;100580;;;
74485;BMP280;62942;52.462;10.846;2023-07-22T06:04:04;100580;;;
74485;BMP280;62942;52.462;10.846;2023-07-22T06:05:04;100570;;;
74485;BMP280;62942;52.462;10.846;2023-07-22T06:06:04;100580;;;
74485;BMP280;62942;52.462;10.846;2023-07-22T06:07:04;100570;;;
74485;BMP280;62942;52.462;10.846;2023-07-22T06:08:04;100580;;;
74485;BMP280;62942;52.462;10.846;2023-07-22T06:09:14;100580;;;
74485;BMP280;62942;52.462;10.846;2023-07-22T06:10:24;100580;;;
74485;BMP280;62942;52.462;10.846;2023-07-22T06:11:34;100580;;;
74485;BMP280;62942;52.462;10.846;2023-07-22T06:12:44;100580;;;
74485;BMP280;62942;52.462;10.846;2023-07-22T06:13:44;100570;;;
74485;BMP280;62942;52.462;10.846;2023-07-22T06:14:54;100570;;;
74485;BMP280;62942;52.462;10.846;2023-07-22T06:16:04;100570;;;
74485;BMP280;62942;52.462;10.846;2023-07-22T06:17:14;100580;;;
74485;BMP280;62942;52.462;10.846;2023-07-22T06:18:24;100580;;;
74485;BMP280;62942;52.462;10.846;2023-07-22T06:19:34;100580;;;
74485;BMP280;62942;52.462;10.846;2023-07-22T06:20:44;100580;;;
74485;BMP280;62942;52.462;10.846;2023-07-22T06:21:54;100580;;;
74485;BMP280;62942;52.462;10.846;2023-07-22T06:23:04;100580;;;
74485;BMP280;62942;52.462;10.846;2023-07-22T06:24:14;100580;;;
74485;BMP280;62942;52.462;10.846;2023-07-22T06:25:24;100580;;;
74485;BMP280;62942;52.462;10.846;2023-07-22T06:26:24;100590;;;
74485;BMP280;62942;52.462;10.846;2023-07-22T06:27:34;100580;;;
74485;BMP280;62942;52.462;10.846;2023-07-22T06:28:44;100580;;;
74485;BMP280;62942;52.462;10.846;2023-07-22T06:29:54;100590;;;
74485;BMP280;62942;52.462;10.846;2023-07-22T06:30:54;100590;;;
74485;BMP280;62942;52.462;10.846;2023-07-22T06:32:04;100580;;;
74485;BMP280;62942;52.462;10.846;2023-07-22T06:33:14;100590;;;
74485;BMP280;62942;52.462;10.846;2023-07-22T06:34:24;100570;;;
74485;BMP280;62942;52.462;10.846;2023-07-22T06:35:24;100590;;;
74485;BMP280;62942;52.462;10.846;2023-07-22T06:36:24;100590;;;
74485;BMP280;62942;52.462;10.846;2023-07-22T06:37:34;100590;;;
74485;BMP280;62942;52.462;10.846;2023-07-22T06:38:44;100590;;;
74485;BMP280;62942;52.462;10.846;2023-07-22T06:39:54;100590;;;
74485;BMP280;62942;52.462;10.846;2023-07-22T06:41:04;100590;;;
74485;BMP280;62942;52.462;10.846;2023-07-22T06:42:14;100590;;;
74485;BMP280;62942;52.462;10.846;2023-07-22T06:43:14;100600;;;
74485;BMP280;62942;52.462;10.846;2023-07-22T06:44:14;100590;;;
74485;BMP280;62942;52.462;10.846;2023-07-22T06:45:24;100590;;;
74485;BMP280;62942;52.462;10.846;2023-07-22T06:46:34;100590;;;
74485;BMP280;62942;52.462;10.846;2023-07-22T06:47:44;100590;;;
74485;BMP280;62942;52.462;10.846;2023-07-22T06:48:54;100600;;;
74485;BMP280;62942;52.462;10.846;2023-07-22T06:49:54;100590;;;
74485;BMP280;62942;52.462;10.846;2023-07-22T06:51:04;100590;;;
74485;BMP280;62942;52.462;10.846;2023-07-22T06:52:04;100590;;;
74485;BMP280;62942;52.462;10.846;2023-07-22T06:53:14;100600;;;
74485;BMP280;62942;52.462;10.846;2023-07-22T06:54:24;100600;;;
74485;BMP280;62942;52.462;10.846;2023-07-22T06:55:24;100590;;;
74485;BMP280;62942;52.462;10.846;2023-07-22T06:56:24;100600;;;
74485;BMP280;62942;52.462;10.846;2023-07-22T06:57:34;100590;;;
74485;BMP280;62942;52.462;10.846;2023-07-22T06:58:34;100590;;;